Terminal Aerodrome Forecast
Issued by NWS Tampa Bay Area, FL

Home | Current Version | Previous Version | Text Only | Print | Product List | Glossary On
Versions: 1 2 3 4 5 6 7 8 9 10 11 12 13
000
FTUS42 KTBW 201121
TAFFMY
TAF
KFMY 201121Z 2012/2112 06004KT P6SM FEW250
     FM201800 02004KT P6SM VCSH SCT035
     FM210000 05005KT P6SM SCT035 BKN150=

USA.gov is the U.S. government's official web portal to all federal, state and local government web resources and services.